createdAt,value
2022-12-28T00:02:09.499Z,42.53
2022-12-28T00:04:58.256Z,45.17
2022-12-28T00:07:47.452Z,42.60
2022-12-28T00:11:07.884Z,43.90
2022-12-28T00:13:46.659Z,44.17
2022-12-28T00:16:39.630Z,41.90
2022-12-28T00:19:28.994Z,44.97
2022-12-28T00:22:17.879Z,43.43
2022-12-28T00:25:08.890Z,44.07
2022-12-28T00:27:57.838Z,47.13
2022-12-28T00:30:47.153Z,44.33
2022-12-28T00:33:37.233Z,44.23
2022-12-28T00:37:08.527Z,42.83
2022-12-28T00:39:35.554Z,44.37
2022-12-28T00:42:24.521Z,43.23
2022-12-28T00:45:13.902Z,44.30
2022-12-28T00:48:03.975Z,48.10
2022-12-28T00:50:54.617Z,45.80
2022-12-28T00:53:43.830Z,46.07
2022-12-28T00:56:33.172Z,46.07
2022-12-28T00:59:22.064Z,44.67
2022-12-28T01:02:11.131Z,47.67
2022-12-28T01:05:00.075Z,45.17
2022-12-28T01:07:50.338Z,45.23
2022-12-28T01:10:40.393Z,46.37
2022-12-28T01:13:29.330Z,46.80
2022-12-28T01:16:20.166Z,47.00
2022-12-28T01:19:11.037Z,45.33
2022-12-28T01:22:00.039Z,44.40
2022-12-28T01:24:51.105Z,43.40
2022-12-28T01:27:40.500Z,46.17
2022-12-28T01:30:30.575Z,47.77
2022-12-28T01:33:19.824Z,41.03
2022-12-28T01:36:10.049Z,46.10
2022-12-28T01:39:01.044Z,45.40
2022-12-28T01:41:51.749Z,39.53
2022-12-28T01:44:46.806Z,42.60
2022-12-28T01:47:36.913Z,46.87
2022-12-28T01:50:30.511Z,43.23
2022-12-28T01:53:21.920Z,46.00
2022-12-28T01:56:11.460Z,45.13
2022-12-28T01:59:02.508Z,43.67
2022-12-28T02:01:51.483Z,43.97
2022-12-28T02:04:40.675Z,45.07
2022-12-28T02:07:39.197Z,41.60
2022-12-28T12:47:31.254Z,38.40
2022-12-28T12:50:51.260Z,43.27
2022-12-28T12:53:53.907Z,37.80
2022-12-28T12:56:51.777Z,41.53
2022-12-28T12:59:51.948Z,41.40
2022-12-28T13:03:07.672Z,39.87
2022-12-28T13:05:59.611Z,37.70
2022-12-28T13:08:52.661Z,36.13
2022-12-28T13:11:42.117Z,38.97
2022-12-28T13:14:31.724Z,38.78
2022-12-28T13:17:23.297Z,38.23
2022-12-28T13:20:19.371Z,39.42
2022-12-28T13:23:18.447Z,35.92
2022-12-28T13:26:11.837Z,35.15
2022-12-28T13:29:03.545Z,35.60
2022-12-28T13:31:53.023Z,36.67
2022-12-28T13:34:51.628Z,35.70
2022-12-28T13:37:40.907Z,36.40
2022-12-28T13:40:33.012Z,36.03
2022-12-28T13:43:49.639Z,36.53
2022-12-28T13:46:41.868Z,35.37
2022-12-28T13:49:35.512Z,37.57
2022-12-28T13:52:28.223Z,36.30
2022-12-28T13:55:20.464Z,35.33
2022-12-28T13:58:14.194Z,34.80
2022-12-28T14:01:05.974Z,36.78
2022-12-28T14:04:25.970Z,36.30
2022-12-28T14:07:13.584Z,34.72
2022-12-28T14:10:02.843Z,35.95
2022-12-28T14:12:53.136Z,35.93
2022-12-28T14:15:44.687Z,33.50
2022-12-28T14:18:35.660Z,36.33
2022-12-28T14:21:35.155Z,37.10
2022-12-28T14:24:24.925Z,35.67
2022-12-28T14:27:18.674Z,34.10
2022-12-28T14:30:09.502Z,33.00
2022-12-28T14:33:22.395Z,34.00
2022-12-28T14:36:22.552Z,33.30
2022-12-28T14:39:26.520Z,33.43
2022-12-28T14:42:21.210Z,32.47
2022-12-28T14:48:49.688Z,31.13
2022-12-28T14:51:44.000Z,35.83
2022-12-28T14:54:35.435Z,32.77
2022-12-28T14:57:30.889Z,32.73
2022-12-28T15:00:16.103Z,35.17
2022-12-28T15:00:29.082Z,34.53
2022-12-28T15:03:20.987Z,33.40
2022-12-28T15:06:11.525Z,36.33
2022-12-28T15:09:01.672Z,33.33
2022-12-28T15:11:50.703Z,35.50
2022-12-28T15:14:39.972Z,34.73
2022-12-28T15:17:33.620Z,34.90
2022-12-28T15:20:22.301Z,35.20
2022-12-28T15:23:12.885Z,35.13
2022-12-28T15:26:07.440Z,35.43
2022-12-28T15:28:56.311Z,35.37
2022-12-28T15:31:45.257Z,35.43
2022-12-28T15:34:34.546Z,36.73
2022-12-28T15:37:23.823Z,36.33
2022-12-28T15:40:14.824Z,35.30
2022-12-28T15:43:04.239Z,35.83
2022-12-28T15:45:55.203Z,35.53
2022-12-28T15:48:47.606Z,35.33
2022-12-28T15:51:36.860Z,34.60
2022-12-28T15:54:25.794Z,36.10
2022-12-28T15:57:16.808Z,35.23
2022-12-28T16:00:06.819Z,34.77
2022-12-28T16:02:57.061Z,36.83
2022-12-28T16:05:46.150Z,33.50
2022-12-28T16:08:34.978Z,36.80
2022-12-28T16:11:24.739Z,36.80
2022-12-28T16:14:17.233Z,37.17
2022-12-28T16:17:06.242Z,35.13
2022-12-28T16:19:55.662Z,35.00
2022-12-28T16:22:44.922Z,36.50
2022-12-28T16:25:33.897Z,36.33
2022-12-28T16:28:23.263Z,42.97
2022-12-28T16:31:24.884Z,36.17
2022-12-28T16:34:16.579Z,37.13
2022-12-28T16:37:05.795Z,34.57
2022-12-28T16:39:55.238Z,35.20
2022-12-28T16:42:46.012Z,34.87
2022-12-28T16:45:36.020Z,34.83
2022-12-28T16:48:26.733Z,32.85
2022-12-28T16:51:15.923Z,33.00
2022-12-28T16:54:05.407Z,34.93
2022-12-28T16:56:54.889Z,33.70
2022-12-28T16:59:44.273Z,37.47
2022-12-28T17:02:33.167Z,34.57
2022-12-28T17:05:24.603Z,34.67
2022-12-28T17:08:14.024Z,35.87
2022-12-28T17:11:03.363Z,33.47
2022-12-28T17:13:52.573Z,32.28
2022-12-28T17:16:41.978Z,35.93
2022-12-28T17:19:31.023Z,37.10
2022-12-28T17:22:21.672Z,37.75
2022-12-28T17:25:10.997Z,39.83
2022-12-28T17:27:59.966Z,41.67
2022-12-28T17:30:49.181Z,38.20
2022-12-28T17:33:40.253Z,39.43
2022-12-28T17:36:29.472Z,37.28
2022-12-28T17:39:20.110Z,35.97
2022-12-28T17:42:09.169Z,37.23
2022-12-28T17:44:58.503Z,37.35
2022-12-28T17:47:48.088Z,36.63
2022-12-28T17:50:36.506Z,35.17
2022-12-28T17:53:25.423Z,36.13
2022-12-28T17:56:16.895Z,35.63
2022-12-28T17:59:06.006Z,35.47
2022-12-28T18:01:55.551Z,36.50
2022-12-28T18:04:44.605Z,35.73
2022-12-28T18:07:34.436Z,34.83
2022-12-28T18:10:23.594Z,32.90
2022-12-28T18:13:15.433Z,34.13
2022-12-28T18:16:06.454Z,33.20
2022-12-28T18:18:55.787Z,33.97
2022-12-28T18:21:45.028Z,37.23
2022-12-28T18:24:34.564Z,33.87
2022-12-28T18:27:23.428Z,35.33
2022-12-28T18:30:15.270Z,33.92
2022-12-28T18:33:04.670Z,33.00
2022-12-28T18:35:53.684Z,35.37
2022-12-28T18:38:44.108Z,35.10
2022-12-28T18:41:34.356Z,35.97
2022-12-28T18:44:23.557Z,34.00
